Pagina principale
METAR-TAF:

METAR-TAF

Aeroporti :

Brindisi, Italia

Aeroporto di Brindisi-Casale

latitudine: 40-39N, longitudine: 017-57E, altezza: 15 m

Osservazione

Il bollettino è stato emesso 24 minuti fa, alle 09:15 UTC
Vento 10 kt da nord/nord-ovest
Temperature 22°C
Umidità 73%
Pressione 1019 hPa
Visibilità 10 km o più
Poco nuvoloso ad un'altezza di 2000 ft

METAR: LIBR 290915Z 34010KT 9999 FEW020 22/17 Q1019 NOSIG

Ora: 11:39 (09:39 UTC)

Previsione

Il bollettino è stato emesso 4 ore e 39 minuti fa, alle 05:00 UTC
Previsione valida dal 29 alle 06 UTC al 30 alle 06 UTC
Vento 12 kt da nord/nord-ovest
Visibilità 10 km o più
nessuna nube inferiore a 1500 m e nessun cumulonembo
Evoluzione graduale
dal 29 alle 18 UTC al 29 alle 21 UTC
Vento 6 kt da nord

TAF: LIBR 290500Z 2906/3006 33012KT CAVOK BECMG 2918/2921 35006KT

Osservazioni e previsioni meteorologiche di più di 4000 aeroporti (messaggi METAR e TAF).

Le stazioni disponibili sono rappresentate dai dischi gialli e rossi sulla carta.

Puntare il mouse per vedere il nome della stazione.

Clicca sopra per visualizzare le osservazioni e previsioni meteorologiche.

Per cambiare la mappa : fare clic sui pulsanti verdi con una croce nera per ingrandire, il pulsante verde con un trattino per diminuire, o sulla freccia verde per le mappe adiacenti.


METAR-TAF: